パリ/シャルル・ド・ゴール の空港の天気 - METARとTAF

シャルル・ド・ゴール国際空港(パリ) ( LFPG / CDG ) - フランス Paris
飛行場実況気象(Metar)
観測時間09/23 01:00 CEST (09/22 23:00 UTC)
風向・風速北 4m/s
視程10km以上
天気現象
なし
気温13℃
湿度77%
気圧1025hPa
METARLFPG 222300Z 01008KT CAVOK 13/09 Q1025 NOSIG
過去の天気等 Google飛行場航空写真 Wunderground天気予報

過去48時間のMETAR

飛行場予報(TAF)
発表時間: 9/22 19:00 CEST (9/22 17:00 UTC)
予報対象時間: 22日20時 CEST ~ 24日2時 CEST
風向・風速東北東 3m/s
視程10km以上
なし
TAF LFPG 221700Z 2218/2324 06005KT CAVOK TX22/2315Z TN08/2306Z